sensor_id;sensor_type;location;lat;lon;timestamp;pressure;altitude;pressure_sealevel;temperature;humidity
22647;BME280;11490;42.726;23.268;2023-02-13T00:00:58;96973.31;;;0.44;98.97
22647;BME280;11490;42.726;23.268;2023-02-13T00:03:24;96970.50;;;0.35;99.84
22647;BME280;11490;42.726;23.268;2023-02-13T00:05:49;96969.44;;;0.48;99.91
22647;BME280;11490;42.726;23.268;2023-02-13T00:08:15;96970.94;;;0.41;99.84
22647;BME280;11490;42.726;23.268;2023-02-13T00:10:40;96969.72;;;0.45;99.92
22647;BME280;11490;42.726;23.268;2023-02-13T00:13:05;96970.16;;;0.50;99.56
22647;BME280;11490;42.726;23.268;2023-02-13T00:15:31;96971.00;;;0.50;99.11
22647;BME280;11490;42.726;23.268;2023-02-13T00:17:56;96977.13;;;0.70;98.97
22647;BME280;11490;42.726;23.268;2023-02-13T00:20:22;96981.06;;;0.85;98.06
22647;BME280;11490;42.726;23.268;2023-02-13T00:22:47;96965.31;;;0.85;97.72
22647;BME280;11490;42.726;23.268;2023-02-13T00:25:12;96968.84;;;0.65;97.50
22647;BME280;11490;42.726;23.268;2023-02-13T00:27:38;96975.66;;;0.87;97.48
22647;BME280;11490;42.726;23.268;2023-02-13T00:30:04;96969.16;;;0.81;97.16
22647;BME280;11490;42.726;23.268;2023-02-13T00:32:29;96979.09;;;0.77;97.87
22647;BME280;11490;42.726;23.268;2023-02-13T00:34:56;96991.75;;;0.63;98.02
22647;BME280;11490;42.726;23.268;2023-02-13T00:37:21;96982.53;;;0.78;98.16
22647;BME280;11490;42.726;23.268;2023-02-13T00:39:46;96987.13;;;0.76;97.55
22647;BME280;11490;42.726;23.268;2023-02-13T00:42:12;96985.16;;;0.78;97.71
22647;BME280;11490;42.726;23.268;2023-02-13T00:44:37;96971.13;;;0.89;97.24
22647;BME280;11490;42.726;23.268;2023-02-13T00:47:02;96983.81;;;0.84;96.44
22647;BME280;11490;42.726;23.268;2023-02-13T00:49:28;96981.38;;;0.52;96.99
22647;BME280;11490;42.726;23.268;2023-02-13T00:51:53;96980.75;;;0.78;96.71
22647;BME280;11490;42.726;23.268;2023-02-13T00:54:18;96986.41;;;0.74;95.92
22647;BME280;11490;42.726;23.268;2023-02-13T00:56:44;96992.88;;;0.60;96.50
22647;BME280;11490;42.726;23.268;2023-02-13T00:59:09;96978.53;;;0.74;96.33
22647;BME280;11490;42.726;23.268;2023-02-13T01:01:34;96997.91;;;0.83;95.89
22647;BME280;11490;42.726;23.268;2023-02-13T01:04:00;97006.28;;;0.67;97.19
22647;BME280;11490;42.726;23.268;2023-02-13T01:06:25;97003.13;;;0.73;96.50
22647;BME280;11490;42.726;23.268;2023-02-13T01:08:51;96981.31;;;0.42;97.37
22647;BME280;11490;42.726;23.268;2023-02-13T01:11:16;96998.97;;;0.61;98.10
22647;BME280;11490;42.726;23.268;2023-02-13T01:13:44;96999.28;;;0.77;96.82
22647;BME280;11490;42.726;23.268;2023-02-13T01:16:09;96981.25;;;0.63;95.95
22647;BME280;11490;42.726;23.268;2023-02-13T01:18:35;97000.41;;;0.84;95.70
22647;BME280;11490;42.726;23.268;2023-02-13T01:21:07;96995.84;;;0.76;95.14
22647;BME280;11490;42.726;23.268;2023-02-13T01:23:35;97010.41;;;0.60;96.58
22647;BME280;11490;42.726;23.268;2023-02-13T01:26:06;97004.22;;;0.70;97.18
22647;BME280;11490;42.726;23.268;2023-02-13T01:28:31;97003.25;;;0.62;96.23
22647;BME280;11490;42.726;23.268;2023-02-13T01:30:57;96985.66;;;0.53;96.76
22647;BME280;11490;42.726;23.268;2023-02-13T01:33:23;96999.63;;;0.63;96.46
22647;BME280;11490;42.726;23.268;2023-02-13T01:35:49;97002.53;;;0.60;96.71
22647;BME280;11490;42.726;23.268;2023-02-13T01:38:15;97011.13;;;0.62;96.25
22647;BME280;11490;42.726;23.268;2023-02-13T01:40:48;97006.47;;;0.75;95.96
22647;BME280;11490;42.726;23.268;2023-02-13T01:43:14;97010.94;;;0.84;95.16
22647;BME280;11490;42.726;23.268;2023-02-13T01:45:41;97009.56;;;0.90;94.71
22647;BME280;11490;42.726;23.268;2023-02-13T01:48:21;97002.09;;;0.85;94.14
22647;BME280;11490;42.726;23.268;2023-02-13T01:50:52;97007.06;;;0.88;94.09
22647;BME280;11490;42.726;23.268;2023-02-13T01:53:27;97019.53;;;0.96;93.01
22647;BME280;11490;42.726;23.268;2023-02-13T01:55:59;97028.50;;;0.63;93.86
22647;BME280;11490;42.726;23.268;2023-02-13T01:58:30;97027.28;;;0.36;94.98
22647;BME280;11490;42.726;23.268;2023-02-13T02:00:57;97022.59;;;0.61;95.45
22647;BME280;11490;42.726;23.268;2023-02-13T02:03:30;97011.44;;;0.38;94.61
22647;BME280;11490;42.726;23.268;2023-02-13T02:05:58;96980.09;;;-0.05;96.16
22647;BME280;11490;42.726;23.268;2023-02-13T02:08:25;97006.94;;;0.08;96.51
22647;BME280;11490;42.726;23.268;2023-02-13T02:10:53;97017.63;;;0.16;96.38
22647;BME280;11490;42.726;23.268;2023-02-13T02:13:20;97010.81;;;0.04;97.68
22647;BME280;11490;42.726;23.268;2023-02-13T02:15:47;97000.91;;;0.08;97.27
22647;BME280;11490;42.726;23.268;2023-02-13T02:18:19;97012.06;;;0.30;96.73
22647;BME280;11490;42.726;23.268;2023-02-13T02:37:22;97026.16;;;0.29;94.68
22647;BME280;11490;42.726;23.268;2023-02-13T02:48:27;97032.94;;;0.11;94.53
22647;BME280;11490;42.726;23.268;2023-02-13T02:53:48;96993.34;;;-0.27;94.43
22647;BME280;11490;42.726;23.268;2023-02-13T02:58:57;97036.97;;;-0.38;93.98
22647;BME280;11490;42.726;23.268;2023-02-13T03:01:43;97026.91;;;-0.21;94.53
22647;BME280;11490;42.726;23.268;2023-02-13T03:04:46;97003.19;;;-0.20;92.79
22647;BME280;11490;42.726;23.268;2023-02-13T03:07:31;97029.59;;;-0.32;93.23
22647;BME280;11490;42.726;23.268;2023-02-13T03:10:00;97033.59;;;-0.28;94.98
22647;BME280;11490;42.726;23.268;2023-02-13T03:12:49;97037.66;;;-0.24;93.69
22647;BME280;11490;42.726;23.268;2023-02-13T03:15:42;97021.94;;;-0.56;93.71
22647;BME280;11490;42.726;23.268;2023-02-13T03:18:29;97010.63;;;-0.57;95.00
22647;BME280;11490;42.726;23.268;2023-02-13T03:21:20;97034.88;;;-0.44;93.63
22647;BME280;11490;42.726;23.268;2023-02-13T03:24:19;97029.13;;;-0.38;92.50
22647;BME280;11490;42.726;23.268;2023-02-13T03:26:56;97029.72;;;-0.77;93.25
22647;BME280;11490;42.726;23.268;2023-02-13T03:32:27;97053.81;;;-0.94;95.46
22647;BME280;11490;42.726;23.268;2023-02-13T03:35:10;97053.94;;;-1.07;96.65
22647;BME280;11490;42.726;23.268;2023-02-13T03:38:04;97036.00;;;-1.11;97.69
22647;BME280;11490;42.726;23.268;2023-02-13T03:43:32;97026.66;;;-0.82;96.92
22647;BME280;11490;42.726;23.268;2023-02-13T03:46:02;97034.72;;;-0.74;94.78
22647;BME280;11490;42.726;23.268;2023-02-13T03:48:31;97043.59;;;-0.97;95.64
22647;BME280;11490;42.726;23.268;2023-02-13T03:51:26;97028.13;;;-1.23;96.50
22647;BME280;11490;42.726;23.268;2023-02-13T03:53:59;97047.25;;;-1.00;97.60
22647;BME280;11490;42.726;23.268;2023-02-13T03:56:26;97039.28;;;-0.87;95.64
22647;BME280;11490;42.726;23.268;2023-02-13T03:59:22;97037.19;;;-1.49;96.80
22647;BME280;11490;42.726;23.268;2023-02-13T04:04:40;97044.09;;;-1.59;99.76
22647;BME280;11490;42.726;23.268;2023-02-13T04:07:11;97047.19;;;-1.21;99.34
22647;BME280;11490;42.726;23.268;2023-02-13T04:10:04;97024.22;;;-1.50;97.20
22647;BME280;11490;42.726;23.268;2023-02-13T04:12:59;97048.47;;;-1.04;96.83
22647;BME280;11490;42.726;23.268;2023-02-13T04:15:36;97047.66;;;-1.04;95.02
22647;BME280;11490;42.726;23.268;2023-02-13T04:18:09;97040.75;;;-1.28;94.30
22647;BME280;11490;42.726;23.268;2023-02-13T04:20:37;97046.19;;;-0.97;94.55
22647;BME280;11490;42.726;23.268;2023-02-13T04:23:08;97030.28;;;-1.28;93.02
22647;BME280;11490;42.726;23.268;2023-02-13T04:25:36;97038.88;;;-1.26;93.36
22647;BME280;11490;42.726;23.268;2023-02-13T04:28:02;97052.06;;;-1.38;95.09
22647;BME280;11490;42.726;23.268;2023-02-13T04:30:27;97056.47;;;-1.50;95.90
22647;BME280;11490;42.726;23.268;2023-02-13T04:32:53;97050.75;;;-1.66;96.79
22647;BME280;11490;42.726;23.268;2023-02-13T04:35:18;97036.09;;;-1.46;97.29
22647;BME280;11490;42.726;23.268;2023-02-13T04:37:44;97045.75;;;-1.47;95.14
22647;BME280;11490;42.726;23.268;2023-02-13T04:40:09;97045.97;;;-1.61;96.74
22647;BME280;11490;42.726;23.268;2023-02-13T04:42:35;97040.75;;;-1.39;96.62
22647;BME280;11490;42.726;23.268;2023-02-13T04:45:00;97038.63;;;-1.45;94.34
22647;BME280;11490;42.726;23.268;2023-02-13T04:47:26;97043.16;;;-1.25;94.00
22647;BME280;11490;42.726;23.268;2023-02-13T04:49:51;97042.16;;;-1.24;94.12
22647;BME280;11490;42.726;23.268;2023-02-13T04:52:16;97040.53;;;-1.25;92.62
22647;BME280;11490;42.726;23.268;2023-02-13T04:54:42;97053.13;;;-1.19;92.03
22647;BME280;11490;42.726;23.268;2023-02-13T04:57:07;97062.41;;;-1.37;93.95
22647;BME280;11490;42.726;23.268;2023-02-13T04:59:33;97059.31;;;-1.08;93.84
22647;BME280;11490;42.726;23.268;2023-02-13T05:01:58;97055.72;;;-0.96;93.63
22647;BME280;11490;42.726;23.268;2023-02-13T05:04:24;97068.38;;;-1.01;93.29
22647;BME280;11490;42.726;23.268;2023-02-13T05:06:50;97065.97;;;-1.38;94.46
22647;BME280;11490;42.726;23.268;2023-02-13T05:09:16;97042.66;;;-1.30;94.13
22647;BME280;11490;42.726;23.268;2023-02-13T05:11:41;97059.91;;;-1.27;92.49
22647;BME280;11490;42.726;23.268;2023-02-13T05:14:09;97047.31;;;-1.56;93.84
22647;BME280;11490;42.726;23.268;2023-02-13T05:16:34;97070.75;;;-1.21;93.80
22647;BME280;11490;42.726;23.268;2023-02-13T05:19:00;97073.47;;;-1.11;92.79
22647;BME280;11490;42.726;23.268;2023-02-13T05:21:25;97059.09;;;-1.17;93.05
22647;BME280;11490;42.726;23.268;2023-02-13T05:24:09;97074.31;;;-1.10;92.37
22647;BME280;11490;42.726;23.268;2023-02-13T05:26:34;97074.16;;;-1.65;94.11
22647;BME280;11490;42.726;23.268;2023-02-13T05:29:00;97073.56;;;-1.68;95.62
22647;BME280;11490;42.726;23.268;2023-02-13T05:31:51;97081.63;;;-1.82;96.17
22647;BME280;11490;42.726;23.268;2023-02-13T05:34:20;97074.41;;;-1.45;95.51
22647;BME280;11490;42.726;23.268;2023-02-13T05:36:46;97060.63;;;-1.47;94.55
22647;BME280;11490;42.726;23.268;2023-02-13T05:39:12;97064.28;;;-1.39;94.47
22647;BME280;11490;42.726;23.268;2023-02-13T05:41:38;97065.97;;;-1.16;93.79
22647;BME280;11490;42.726;23.268;2023-02-13T05:44:03;97086.22;;;-1.18;93.46
22647;BME280;11490;42.726;23.268;2023-02-13T05:46:29;97095.00;;;-1.07;93.66
22647;BME280;11490;42.726;23.268;2023-02-13T05:48:54;97076.78;;;-0.87;93.09
22647;BME280;11490;42.726;23.268;2023-02-13T05:51:20;97078.81;;;-0.79;92.01
22647;BME280;11490;42.726;23.268;2023-02-13T05:53:45;97064.66;;;-0.88;91.92
22647;BME280;11490;42.726;23.268;2023-02-13T05:56:11;97103.75;;;-0.53;92.04
22647;BME280;11490;42.726;23.268;2023-02-13T05:58:36;97101.44;;;-0.78;92.00
22647;BME280;11490;42.726;23.268;2023-02-13T06:01:02;97065.13;;;-0.94;91.52
22647;BME280;11490;42.726;23.268;2023-02-13T06:03:29;97100.69;;;-0.69;92.38
22647;BME280;11490;42.726;23.268;2023-02-13T06:05:54;97062.13;;;-0.89;92.44
22647;BME280;11490;42.726;23.268;2023-02-13T06:08:21;97107.97;;;-0.84;93.02
22647;BME280;11490;42.726;23.268;2023-02-13T06:10:47;97086.19;;;-0.84;94.36
22647;BME280;11490;42.726;23.268;2023-02-13T06:13:13;97106.63;;;-0.56;93.71
22647;BME280;11490;42.726;23.268;2023-02-13T06:15:38;97113.94;;;-0.39;93.64
22647;BME280;11490;42.726;23.268;2023-02-13T06:18:04;97099.91;;;-0.38;92.96
22647;BME280;11490;42.726;23.268;2023-02-13T06:20:29;97111.91;;;-0.24;92.55
22647;BME280;11490;42.726;23.268;2023-02-13T06:22:56;97095.34;;;-0.24;92.15
22647;BME280;11490;42.726;23.268;2023-02-13T06:25:22;97108.41;;;-0.13;92.49
22647;BME280;11490;42.726;23.268;2023-02-13T06:27:48;97096.50;;;-0.17;91.90
22647;BME280;11490;42.726;23.268;2023-02-13T06:30:14;97102.16;;;-0.01;92.01
22647;BME280;11490;42.726;23.268;2023-02-13T06:32:39;97124.13;;;0.19;91.62
22647;BME280;11490;42.726;23.268;2023-02-13T06:35:06;97094.41;;;-0.34;91.83
22647;BME280;11490;42.726;23.268;2023-02-13T06:37:32;97093.06;;;-0.18;93.18
22647;BME280;11490;42.726;23.268;2023-02-13T06:39:57;97089.06;;;-0.33;93.55
22647;BME280;11490;42.726;23.268;2023-02-13T06:42:22;97127.06;;;0.05;93.76
22647;BME280;11490;42.726;23.268;2023-02-13T06:44:48;97100.91;;;0.14;93.01
22647;BME280;11490;42.726;23.268;2023-02-13T06:47:13;97105.50;;;0.43;91.87
22647;BME280;11490;42.726;23.268;2023-02-13T06:49:39;97101.81;;;0.45;91.18
22647;BME280;11490;42.726;23.268;2023-02-13T06:52:04;97114.47;;;0.61;90.96
22647;BME280;11490;42.726;23.268;2023-02-13T06:54:32;97104.81;;;0.61;91.91
22647;BME280;11490;42.726;23.268;2023-02-13T06:56:58;97102.31;;;0.60;91.51
22647;BME280;11490;42.726;23.268;2023-02-13T06:59:32;97082.97;;;0.61;91.55
22647;BME280;11490;42.726;23.268;2023-02-13T07:01:58;97124.47;;;0.97;90.76
22647;BME280;11490;42.726;23.268;2023-02-13T07:04:23;97107.47;;;0.92;90.44
22647;BME280;11490;42.726;23.268;2023-02-13T07:06:53;97103.88;;;1.02;90.40
22647;BME280;11490;42.726;23.268;2023-02-13T07:09:19;97094.44;;;0.90;89.86
22647;BME280;11490;42.726;23.268;2023-02-13T07:11:44;97114.16;;;1.05;90.62
22647;BME280;11490;42.726;23.268;2023-02-13T07:14:10;97106.97;;;1.07;90.61
22647;BME280;11490;42.726;23.268;2023-02-13T07:16:35;97121.66;;;1.20;89.94
22647;BME280;11490;42.726;23.268;2023-02-13T07:19:01;97126.38;;;1.26;90.18
22647;BME280;11490;42.726;23.268;2023-02-13T07:21:26;97096.66;;;0.85;91.06
22647;BME280;11490;42.726;23.268;2023-02-13T07:23:52;97126.72;;;1.42;91.41
22647;BME280;11490;42.726;23.268;2023-02-13T07:26:17;97124.78;;;1.44;90.47
22647;BME280;11490;42.726;23.268;2023-02-13T07:28:42;97121.50;;;1.51;89.51
22647;BME280;11490;42.726;23.268;2023-02-13T07:31:08;97126.38;;;1.66;89.34
22647;BME280;11490;42.726;23.268;2023-02-13T07:33:34;97141.22;;;1.76;89.60
22647;BME280;11490;42.726;23.268;2023-02-13T07:35:59;97125.97;;;1.70;89.21
22647;BME280;11490;42.726;23.268;2023-02-13T07:38:28;97125.38;;;1.57;89.44
22647;BME280;11490;42.726;23.268;2023-02-13T07:40:54;97112.34;;;1.55;90.70
22647;BME280;11490;42.726;23.268;2023-02-13T07:43:21;97110.72;;;1.64;90.67
22647;BME280;11490;42.726;23.268;2023-02-13T07:45:47;97119.63;;;1.82;90.43
22647;BME280;11490;42.726;23.268;2023-02-13T07:48:12;97125.97;;;1.70;90.79
22647;BME280;11490;42.726;23.268;2023-02-13T07:50:38;97118.19;;;1.59;92.43
22647;BME280;11490;42.726;23.268;2023-02-13T07:53:03;97113.25;;;1.75;91.14
22647;BME280;11490;42.726;23.268;2023-02-13T07:55:29;97101.28;;;1.52;90.54
22647;BME280;11490;42.726;23.268;2023-02-13T07:57:58;97130.84;;;1.94;91.56
22647;BME280;11490;42.726;23.268;2023-02-13T08:00:27;97133.50;;;2.23;90.91
22647;BME280;11490;42.726;23.268;2023-02-13T08:02:52;97119.06;;;2.27;89.68
22647;BME280;11490;42.726;23.268;2023-02-13T08:05:18;97096.38;;;2.07;89.84
22647;BME280;11490;42.726;23.268;2023-02-13T08:07:43;97095.94;;;2.21;88.98
22647;BME280;11490;42.726;23.268;2023-02-13T08:10:11;97139.03;;;2.20;89.70
22647;BME280;11490;42.726;23.268;2023-02-13T08:12:55;97109.53;;;2.16;89.94
22647;BME280;11490;42.726;23.268;2023-02-13T08:15:21;97124.03;;;1.72;90.01
22647;BME280;11490;42.726;23.268;2023-02-13T08:17:46;97122.34;;;1.62;91.45
22647;BME280;11490;42.726;23.268;2023-02-13T08:20:12;97114.91;;;1.76;91.98
22647;BME280;11490;42.726;23.268;2023-02-13T08:22:40;97091.91;;;1.88;91.31
22647;BME280;11490;42.726;23.268;2023-02-13T08:25:18;97125.75;;;2.31;90.46
22647;BME280;11490;42.726;23.268;2023-02-13T08:27:46;97068.81;;;1.91;90.51
22647;BME280;11490;42.726;23.268;2023-02-13T08:30:12;97109.94;;;2.21;90.63
22647;BME280;11490;42.726;23.268;2023-02-13T08:32:39;97104.94;;;2.28;90.92
22647;BME280;11490;42.726;23.268;2023-02-13T08:35:05;97125.44;;;2.53;89.61
22647;BME280;11490;42.726;23.268;2023-02-13T08:37:30;97118.78;;;2.59;89.91
22647;BME280;11490;42.726;23.268;2023-02-13T08:39:56;97075.00;;;2.39;89.34
22647;BME280;11490;42.726;23.268;2023-02-13T08:42:21;97100.19;;;2.60;89.82
22647;BME280;11490;42.726;23.268;2023-02-13T08:44:47;97083.31;;;2.53;89.12
22647;BME280;11490;42.726;23.268;2023-02-13T08:47:12;97083.03;;;2.37;89.37
22647;BME280;11490;42.726;23.268;2023-02-13T08:49:40;97104.88;;;2.66;90.36
22647;BME280;11490;42.726;23.268;2023-02-13T08:52:05;97069.69;;;2.58;89.28
22647;BME280;11490;42.726;23.268;2023-02-13T08:54:35;97061.06;;;2.65;88.49
22647;BME280;11490;42.726;23.268;2023-02-13T08:57:03;97115.03;;;3.08;87.67
22647;BME280;11490;42.726;23.268;2023-02-13T09:02:44;97107.59;;;2.94;89.06
22647;BME280;11490;42.726;23.268;2023-02-13T09:05:12;97100.56;;;2.85;89.76
22647;BME280;11490;42.726;23.268;2023-02-13T09:07:42;97071.44;;;2.77;89.66
22647;BME280;11490;42.726;23.268;2023-02-13T09:10:35;97108.28;;;3.33;88.87
22647;BME280;11490;42.726;23.268;2023-02-13T09:23:36;97126.88;;;3.86;86.05
22647;BME280;11490;42.726;23.268;2023-02-13T09:26:12;97084.16;;;3.73;85.75
22647;BME280;11490;42.726;23.268;2023-02-13T09:28:53;97096.88;;;3.87;86.64
22647;BME280;11490;42.726;23.268;2023-02-13T09:31:20;97094.53;;;4.02;85.65
22647;BME280;11490;42.726;23.268;2023-02-13T09:33:46;97100.31;;;4.05;85.54
22647;BME280;11490;42.726;23.268;2023-02-13T09:36:15;97070.47;;;3.87;85.95
22647;BME280;11490;42.726;23.268;2023-02-13T09:38:43;97093.38;;;4.04;85.92
22647;BME280;11490;42.726;23.268;2023-02-13T09:41:14;97065.63;;;4.00;84.77
22647;BME280;11490;42.726;23.268;2023-02-13T09:43:56;97110.13;;;4.31;84.08
22647;BME280;11490;42.726;23.268;2023-02-13T09:46:32;97091.28;;;4.25;84.83
22647;BME280;11490;42.726;23.268;2023-02-13T09:49:04;97079.88;;;4.25;84.63
22647;BME280;11490;42.726;23.268;2023-02-13T09:51:31;97076.16;;;4.36;84.11
22647;BME280;11490;42.726;23.268;2023-02-13T09:54:05;97068.16;;;4.45;83.02
22647;BME280;11490;42.726;23.268;2023-02-13T09:59:19;97030.47;;;4.17;83.57
22647;BME280;11490;42.726;23.268;2023-02-13T10:01:51;97017.50;;;4.06;83.13
22647;BME280;11490;42.726;23.268;2023-02-13T10:07:51;97038.47;;;4.77;83.21
22647;BME280;11490;42.726;23.268;2023-02-13T10:10:27;97067.25;;;5.56;81.01
22647;BME280;11490;42.726;23.268;2023-02-13T10:16:37;97059.44;;;6.21;74.93
22647;BME280;11490;42.726;23.268;2023-02-13T10:22:20;96988.91;;;6.28;73.60
22647;BME280;11490;42.726;23.268;2023-02-13T10:25:27;97051.69;;;7.15;72.29
22647;BME280;11490;42.726;23.268;2023-02-13T10:28:13;97019.31;;;6.89;72.38
22647;BME280;11490;42.726;23.268;2023-02-13T10:30:57;96998.56;;;6.84;70.26
22647;BME280;11490;42.726;23.268;2023-02-13T10:33:33;97005.00;;;6.98;70.42
22647;BME280;11490;42.726;23.268;2023-02-13T10:57:09;96937.09;;;6.81;70.40
22647;BME280;11490;42.726;23.268;2023-02-13T11:02:31;96928.50;;;7.41;66.44
22647;BME280;11490;42.726;23.268;2023-02-13T11:05:17;96990.59;;;7.85;66.58
22647;BME280;11490;42.726;23.268;2023-02-13T11:07:47;96945.03;;;7.51;66.41
22647;BME280;11490;42.726;23.268;2023-02-13T11:10:25;96964.56;;;7.58;67.65
22647;BME280;11490;42.726;23.268;2023-02-13T11:12:54;96912.56;;;7.41;67.43
22647;BME280;11490;42.726;23.268;2023-02-13T11:18:51;96955.13;;;7.78;64.92
22647;BME280;11490;42.726;23.268;2023-02-13T11:21:33;96904.97;;;7.60;64.13
22647;BME280;11490;42.726;23.268;2023-02-13T11:24:14;96897.72;;;7.54;63.36
22647;BME280;11490;42.726;23.268;2023-02-13T11:26:48;96942.06;;;7.91;63.69
22647;BME280;11490;42.726;23.268;2023-02-13T11:29:49;96876.06;;;7.43;62.66
22647;BME280;11490;42.726;23.268;2023-02-13T11:32:24;96904.97;;;7.60;62.54
22647;BME280;11490;42.726;23.268;2023-02-13T11:34:52;96907.16;;;7.34;63.37
22647;BME280;11490;42.726;23.268;2023-02-13T11:37:28;96922.97;;;7.73;64.29
22647;BME280;11490;42.726;23.268;2023-02-13T11:40:00;96913.41;;;7.64;64.58
22647;BME280;11490;42.726;23.268;2023-02-13T11:42:43;96901.63;;;7.35;63.20
22647;BME280;11490;42.726;23.268;2023-02-13T11:45:23;96895.31;;;7.14;62.21
22647;BME280;11490;42.726;23.268;2023-02-13T11:47:50;96889.22;;;7.05;62.32
22647;BME280;11490;42.726;23.268;2023-02-13T11:50:28;96873.97;;;7.07;63.08
22647;BME280;11490;42.726;23.268;2023-02-13T11:52:57;96889.53;;;7.10;62.56
22647;BME280;11490;42.726;23.268;2023-02-13T11:58:04;96895.09;;;7.23;61.15
22647;BME280;11490;42.726;23.268;2023-02-13T12:00:45;96866.72;;;7.01;61.66
22647;BME280;11490;42.726;23.268;2023-02-13T12:06:05;96858.84;;;6.85;61.55
22647;BME280;11490;42.726;23.268;2023-02-13T12:08:37;96844.69;;;6.92;62.39
22647;BME280;11490;42.726;23.268;2023-02-13T12:11:19;96861.66;;;7.14;59.95
22647;BME280;11490;42.726;23.268;2023-02-13T12:13:45;96857.94;;;7.23;60.58
22647;BME280;11490;42.726;23.268;2023-02-13T12:18:51;96860.88;;;7.28;61.19
22647;BME280;11490;42.726;23.268;2023-02-13T12:26:56;96839.78;;;7.12;60.24
22647;BME280;11490;42.726;23.268;2023-02-13T12:33:36;96830.78;;;6.90;60.05
22647;BME280;11490;42.726;23.268;2023-02-13T12:41:20;96832.84;;;7.11;60.13
22647;BME280;11490;42.726;23.268;2023-02-13T12:46:49;96838.13;;;7.11;60.20
22647;BME280;11490;42.726;23.268;2023-02-13T12:55:42;96834.50;;;7.12;61.35
22647;BME280;11490;42.726;23.268;2023-02-13T13:12:03;96798.97;;;7.13;61.25
22647;BME280;11490;42.726;23.268;2023-02-13T13:14:59;96781.28;;;7.06;59.91
22647;BME280;11490;42.726;23.268;2023-02-13T13:26:19;96760.53;;;7.09;61.01
22647;BME280;11490;42.726;23.268;2023-02-13T13:28:50;96802.09;;;7.40;61.06
22647;BME280;11490;42.726;23.268;2023-02-13T13:31:17;96809.13;;;7.32;60.77
22647;BME280;11490;42.726;23.268;2023-02-13T13:33:45;96768.44;;;7.17;61.08
22647;BME280;11490;42.726;23.268;2023-02-13T13:36:19;96781.25;;;7.28;60.86
22647;BME280;11490;42.726;23.268;2023-02-13T13:39:08;96804.63;;;7.33;61.05
22647;BME280;11490;42.726;23.268;2023-02-13T13:41:59;96740.09;;;6.95;61.24
22647;BME280;11490;42.726;23.268;2023-02-13T13:45:16;96802.63;;;7.35;61.32
22647;BME280;11490;42.726;23.268;2023-02-13T13:47:47;96797.50;;;7.33;60.98
22647;BME280;11490;42.726;23.268;2023-02-13T13:50:43;96800.50;;;7.30;60.97
22647;BME280;11490;42.726;23.268;2023-02-13T13:53:19;96735.66;;;6.87;61.16
22647;BME280;11490;42.726;23.268;2023-02-13T14:03:42;96770.16;;;7.10;62.53
22647;BME280;11490;42.726;23.268;2023-02-13T14:06:13;96763.84;;;7.11;62.60
22647;BME280;11490;42.726;23.268;2023-02-13T14:11:26;96714.56;;;6.71;62.57
22647;BME280;11490;42.726;23.268;2023-02-13T14:13:52;96784.41;;;7.09;62.18
22647;BME280;11490;42.726;23.268;2023-02-13T14:16:39;96792.25;;;7.25;62.33
22647;BME280;11490;42.726;23.268;2023-02-13T14:19:05;96762.19;;;7.10;62.29
22647;BME280;11490;42.726;23.268;2023-02-13T14:21:47;96747.22;;;6.94;62.41
22647;BME280;11490;42.726;23.268;2023-02-13T14:24:12;96744.41;;;6.96;62.16
22647;BME280;11490;42.726;23.268;2023-02-13T14:26:39;96743.47;;;6.89;62.34
22647;BME280;11490;42.726;23.268;2023-02-13T14:29:21;96770.66;;;7.06;63.07
22647;BME280;11490;42.726;23.268;2023-02-13T14:31:59;96770.22;;;7.02;63.26
22647;BME280;11490;42.726;23.268;2023-02-13T14:34:32;96774.69;;;7.02;63.04
22647;BME280;11490;42.726;23.268;2023-02-13T14:37:12;96767.94;;;6.91;63.31
22647;BME280;11490;42.726;23.268;2023-02-13T14:42:35;96749.69;;;6.73;64.11
22647;BME280;11490;42.726;23.268;2023-02-13T14:45:04;96721.50;;;6.49;64.01
22647;BME280;11490;42.726;23.268;2023-02-13T14:47:39;96767.47;;;6.65;64.09
22647;BME280;11490;42.726;23.268;2023-02-13T14:50:15;96744.13;;;6.60;63.81
22647;BME280;11490;42.726;23.268;2023-02-13T14:52:43;96758.16;;;6.69;63.96
22647;BME280;11490;42.726;23.268;2023-02-13T14:56:01;96753.06;;;6.59;63.58
22647;BME280;11490;42.726;23.268;2023-02-13T14:58:06;96763.94;;;6.72;63.51
22647;BME280;11490;42.726;23.268;2023-02-13T15:03:53;96762.50;;;6.62;64.05
22647;BME280;11490;42.726;23.268;2023-02-13T15:06:26;96746.38;;;6.48;64.25
22647;BME280;11490;42.726;23.268;2023-02-13T15:08:55;96765.91;;;6.47;64.43
22647;BME280;11490;42.726;23.268;2023-02-13T15:11:40;96727.66;;;6.19;64.44
22647;BME280;11490;42.726;23.268;2023-02-13T15:14:20;96761.69;;;6.30;64.88
22647;BME280;11490;42.726;23.268;2023-02-13T15:16:53;96736.31;;;5.97;65.06
22647;BME280;11490;42.726;23.268;2023-02-13T15:19:21;96733.38;;;5.92;65.93
22647;BME280;11490;42.726;23.268;2023-02-13T15:21:57;96732.34;;;6.01;65.62
22647;BME280;11490;42.726;23.268;2023-02-13T15:24:24;96739.16;;;5.95;65.29
22647;BME280;11490;42.726;23.268;2023-02-13T15:26:59;96737.66;;;5.85;65.55
22647;BME280;11490;42.726;23.268;2023-02-13T15:29:25;96770.44;;;5.92;65.38
22647;BME280;11490;42.726;23.268;2023-02-13T15:31:51;96741.72;;;5.64;66.55
22647;BME280;11490;42.726;23.268;2023-02-13T15:36:52;96749.97;;;5.69;66.44
22647;BME280;11490;42.726;23.268;2023-02-13T15:39:23;96734.44;;;5.42;66.73
22647;BME280;11490;42.726;23.268;2023-02-13T15:41:52;96739.78;;;5.34;67.16
22647;BME280;11490;42.726;23.268;2023-02-13T15:44:40;96744.03;;;5.43;67.31
22647;BME280;11490;42.726;23.268;2023-02-13T15:47:22;96752.97;;;5.42;67.78
22647;BME280;11490;42.726;23.268;2023-02-13T15:49:50;96737.78;;;5.12;67.78
22647;BME280;11490;42.726;23.268;2023-02-13T15:52:28;96752.66;;;5.04;68.24
22647;BME280;11490;42.726;23.268;2023-02-13T15:54:55;96743.59;;;4.91;68.40
22647;BME280;11490;42.726;23.268;2023-02-13T15:57:21;96757.47;;;5.01;68.13
22647;BME280;11490;42.726;23.268;2023-02-13T15:59:51;96749.03;;;4.97;68.16
22647;BME280;11490;42.726;23.268;2023-02-13T16:02:24;96758.63;;;4.90;69.03
22647;BME280;11490;42.726;23.268;2023-02-13T16:04:54;96745.06;;;4.77;68.85